Sitc Xiamen — 3ELU — position and weather

sailwx.info

Track history (hours):
 
Tides and Currents Weather Stations Pressure Air Temp Water Temp Dewpoint Dewpoint Depression Visibility Wind Speed Wind Dir Waves Ship Positions

Sitc Xiamen

Last reported at 2017-Jan-01 16:33 UTC. Time now 2017-Mar-27 00:43 UTC.
Position N 24°21' E 118°10'.
Warning: this ship's position is months out of date.

Length 145 m; draft 8.1 m.

Type: Cargo ship. MMSI: 355090000.

Date/timePositionNaut miles runAvg speedWind from/ knotsBaromVisibWave heightAir tempDewpointWater temp
2017-Jan-01 16:33N 24°21' E 118°10'11 9.1
2017-Jan-01 15:24N 24°30' E 118°05'0 0.0
2017-Jan-01 04:13N 24°30' E 118°05'5 7.1
2017-Jan-01 03:33N 24°26' E 118°03'1010.1
2017-Jan-01 02:33N 24°20' E 118°12'2 2.0
2017-Jan-01 01:32N 24°20' E 118°15'0 0.0
2017-Jan-01 00:32N 24°20' E 118°15'0 0.1
2016-Dec-31 23:32N 24°20' E 118°15'0 0.0
2016-Dec-31 22:32N 24°20' E 118°15'3 3.6
2016-Dec-31 21:34N 24°20' E 118°18'  
2016-Dec-24 02:16N 24°02' E 118°21'7 9.7
2016-Dec-24 01:33N 23°56' E 118°16'8 8.2
2016-Dec-24 00:33N 23°50' E 118°11'  
Track history (hours):
 
Tides and Currents Weather Stations Pressure Air Temp Water Temp Dewpoint Dewpoint Depression Visibility Wind Speed Wind Dir Waves Ship Positions

Sitc Xiamen

Last reported at 2017-Jan-01 16:33 UTC. Time now 2017-Mar-27 00:43 UTC.
Position N 24°21' E 118°10'.
Warning: this ship's position is months out of date.

Length 145 m; draft 8.1 m.

Type: Cargo ship. MMSI: 355090000.

Date/timePositionNaut miles runAvg speedWind from/ knotsBaromVisibWave heightAir tempDewpointWater temp
2017-Jan-01 16:33N 24°21' E 118°10'11 9.1
2017-Jan-01 15:24N 24°30' E 118°05'0 0.0
2017-Jan-01 04:13N 24°30' E 118°05'5 7.1
2017-Jan-01 03:33N 24°26' E 118°03'1010.1
2017-Jan-01 02:33N 24°20' E 118°12'2 2.0
2017-Jan-01 01:32N 24°20' E 118°15'0 0.0
2017-Jan-01 00:32N 24°20' E 118°15'0 0.1
2016-Dec-31 23:32N 24°20' E 118°15'0 0.0
2016-Dec-31 22:32N 24°20' E 118°15'3 3.6
2016-Dec-31 21:34N 24°20' E 118°18'  
2016-Dec-24 02:16N 24°02' E 118°21'7 9.7
2016-Dec-24 01:33N 23°56' E 118°16'8 8.2
2016-Dec-24 00:33N 23°50' E 118°11'  

Dump ship's entire track history